createdAt,value
2022-08-17T00:02:25.555Z,101276.00
2022-08-17T00:04:54.345Z,101276.97
2022-08-17T00:07:21.357Z,101276.59
2022-08-17T00:09:48.220Z,101277.81
2022-08-17T00:12:43.490Z,101253.34
2022-08-17T00:15:01.836Z,101243.34
2022-08-17T00:17:29.197Z,101257.22
2022-08-17T00:19:55.857Z,101277.47
2022-08-17T00:22:34.376Z,101279.25
2022-08-17T00:25:07.456Z,101283.00
2022-08-17T00:27:35.306Z,101281.03
2022-08-17T00:30:02.079Z,101285.59
2022-08-17T00:33:12.660Z,101289.97
2022-08-17T00:35:19.714Z,101295.81
2022-08-17T00:37:46.675Z,101279.63
2022-08-17T00:40:15.231Z,101308.72
2022-08-17T00:42:44.027Z,101304.41
2022-08-17T00:45:14.455Z,101296.78
2022-08-17T00:47:41.721Z,101295.75
2022-08-17T00:50:11.287Z,101300.00
2022-08-17T00:52:45.735Z,101297.56
2022-08-17T00:55:12.886Z,101297.69
2022-08-17T00:57:44.936Z,101266.19
2022-08-17T01:00:21.427Z,101295.38
2022-08-17T01:02:50.829Z,101300.63
2022-08-17T01:05:20.840Z,101292.97
2022-08-17T01:07:51.098Z,101284.38
2022-08-17T01:10:59.577Z,101291.47
2022-08-17T01:13:11.342Z,101282.16
2022-08-17T01:15:41.520Z,101305.47
2022-08-17T01:18:14.516Z,101294.38
2022-08-17T01:20:48.563Z,101292.16
2022-08-17T01:23:20.977Z,101302.09
2022-08-17T01:25:57.082Z,101304.56
2022-08-17T01:28:52.462Z,101299.47
2022-08-17T01:31:13.795Z,101298.63
2022-08-17T01:33:40.571Z,101289.94
2022-08-17T01:36:08.377Z,101302.81
2022-08-17T01:38:37.204Z,101308.09
2022-08-17T01:41:11.510Z,101283.72
2022-08-17T01:43:44.376Z,101310.72
2022-08-17T01:46:16.190Z,101303.19
2022-08-17T01:48:43.703Z,101308.69
2022-08-17T01:51:10.762Z,101309.19
2022-08-17T01:53:41.602Z,101290.53
2022-08-17T01:56:11.851Z,101308.63
2022-08-17T01:58:39.934Z,101307.75
2022-08-17T02:01:08.052Z,101309.19
2022-08-17T02:03:36.700Z,101316.94
2022-08-17T02:06:05.691Z,101315.28
2022-08-17T02:09:02.737Z,101328.34
2022-08-17T02:11:33.493Z,101317.81
2022-08-17T02:14:03.463Z,101324.75
2022-08-17T02:16:38.223Z,101335.84
2022-08-17T02:19:12.298Z,101340.97
2022-08-17T02:21:41.355Z,101322.78
2022-08-17T02:25:00.251Z,101312.81
2022-08-17T02:27:08.444Z,101319.56
2022-08-17T02:29:35.412Z,101327.53
2022-08-17T02:32:02.375Z,101328.31
2022-08-17T02:34:29.207Z,101330.06
2022-08-17T02:36:56.173Z,101334.66
2022-08-17T02:39:22.994Z,101314.69
2022-08-17T02:41:49.774Z,101320.88
2022-08-17T02:44:39.684Z,101326.28
2022-08-17T02:47:04.241Z,101325.59
2022-08-17T02:49:31.297Z,101336.94
2022-08-17T02:51:58.647Z,101349.78
2022-08-17T02:54:39.874Z,101345.88
2022-08-17T02:57:10.272Z,101350.56
2022-08-17T02:59:38.816Z,101354.72
2022-08-17T03:02:11.583Z,101351.13
2022-08-17T03:04:38.541Z,101342.81
2022-08-17T03:07:05.875Z,101342.00
2022-08-17T03:09:32.932Z,101341.94
2022-08-17T03:12:08.501Z,101355.09
2022-08-17T03:14:42.703Z,101348.78
2022-08-17T03:17:11.058Z,101329.00
2022-08-17T03:19:43.671Z,101336.63
2022-08-17T03:22:37.197Z,101336.09
2022-08-17T03:24:58.278Z,101336.69
2022-08-17T03:27:24.952Z,101335.59
2022-08-17T03:29:51.593Z,101332.97
2022-08-17T03:32:20.759Z,101336.94
2022-08-17T03:34:48.101Z,101336.88
2022-08-17T03:37:14.881Z,101342.59
2022-08-17T03:39:41.672Z,101336.53
2022-08-17T03:42:32.123Z,101322.75
2022-08-17T03:45:00.550Z,101354.94
2022-08-17T03:47:47.102Z,101346.19
2022-08-17T03:50:33.363Z,101332.31
2022-08-17T03:53:19.043Z,101338.38
2022-08-17T03:56:04.583Z,101330.75
2022-08-17T03:58:31.296Z,101337.69
2022-08-17T04:00:58.134Z,101338.97
2022-08-17T04:03:24.791Z,101337.19
2022-08-17T04:05:51.527Z,101332.31
2022-08-17T04:08:18.279Z,101338.44
2022-08-17T04:10:45.426Z,101338.63
2022-08-17T04:13:13.094Z,101347.59
2022-08-17T04:15:40.257Z,101349.97
2022-08-17T04:18:07.759Z,101343.25
2022-08-17T04:20:37.987Z,101333.03
2022-08-17T04:23:09.858Z,101349.03
2022-08-17T04:25:39.046Z,101357.44
2022-08-17T04:28:07.632Z,101338.69
2022-08-17T04:30:43.331Z,101330.09
2022-08-17T04:33:14.136Z,101332.44
2022-08-17T04:35:50.172Z,101326.84
2022-08-17T04:38:20.167Z,101345.00
2022-08-17T04:41:06.521Z,101336.44
2022-08-17T04:43:35.337Z,101328.00
2022-08-17T04:46:06.024Z,101337.94
2022-08-17T04:48:40.595Z,101346.91
2022-08-17T04:51:24.000Z,101335.84
2022-08-17T04:53:55.162Z,101339.75
2022-08-17T04:56:22.915Z,101349.63
2022-08-17T04:58:51.851Z,101352.72
2022-08-17T05:01:23.685Z,101355.22
2022-08-17T05:03:56.495Z,101338.00
2022-08-17T05:06:23.862Z,101337.84
2022-08-17T05:08:50.579Z,101357.44
2022-08-17T05:11:17.820Z,101348.72
2022-08-17T05:13:44.933Z,101368.56
2022-08-17T05:16:11.890Z,101355.31
2022-08-17T05:18:39.336Z,101362.19
2022-08-17T05:21:07.122Z,101366.69
2022-08-17T05:23:43.037Z,101368.78
2022-08-17T05:26:26.401Z,101370.09
2022-08-17T05:28:59.781Z,101368.25
2022-08-17T05:31:29.967Z,101377.53
2022-08-17T05:33:56.801Z,101370.72
2022-08-17T05:36:38.096Z,101369.38
2022-08-17T05:39:09.476Z,101377.44
2022-08-17T05:41:43.944Z,101380.66
2022-08-17T05:44:10.843Z,101374.56
2022-08-17T05:46:42.004Z,101371.09
2022-08-17T05:49:09.627Z,101380.56
2022-08-17T05:51:45.340Z,101389.19
2022-08-17T05:54:24.150Z,101387.25
2022-08-17T05:56:53.768Z,101384.53
2022-08-17T05:59:57.880Z,101387.16
2022-08-17T06:02:48.054Z,101391.19
2022-08-17T06:05:15.194Z,101395.63
2022-08-17T06:07:49.960Z,101385.81
2022-08-17T06:10:28.746Z,101401.66
2022-08-17T06:13:07.559Z,101406.63
2022-08-17T06:16:33.309Z,101406.44
2022-08-17T06:19:20.952Z,101403.31
2022-08-17T06:21:53.201Z,101397.41
2022-08-17T06:24:39.584Z,101393.53
2022-08-17T06:27:25.123Z,101415.06
2022-08-17T06:30:24.930Z,101409.06
2022-08-17T06:32:53.479Z,101416.88
2022-08-17T06:35:32.025Z,101416.44
2022-08-17T06:38:21.817Z,101403.00
2022-08-17T06:41:23.891Z,101418.56
2022-08-17T06:43:59.523Z,101418.00
2022-08-17T06:46:48.870Z,101422.31
2022-08-17T06:49:26.142Z,101429.13
2022-08-17T06:52:01.466Z,101410.53
2022-08-17T06:54:32.134Z,101427.25
2022-08-17T06:57:08.174Z,101437.78
2022-08-17T06:59:55.471Z,101431.34
2022-08-17T07:03:01.679Z,101435.66
2022-08-17T07:05:36.667Z,101436.69
2022-08-17T07:08:35.297Z,101406.44
2022-08-17T07:11:28.503Z,101435.66
2022-08-17T07:13:58.246Z,101440.00
2022-08-17T07:16:50.506Z,101413.47
2022-08-17T07:19:22.732Z,101431.19
2022-08-17T07:22:14.859Z,101441.84
2022-08-17T07:24:57.367Z,101388.53
2022-08-17T07:27:31.751Z,101432.59
2022-08-17T07:30:06.782Z,101407.22
2022-08-17T07:32:47.739Z,101366.13
2022-08-17T07:35:20.029Z,101431.91
2022-08-17T07:37:53.300Z,101375.47
2022-08-17T07:40:27.014Z,101440.34
2022-08-17T07:43:05.996Z,101442.06
2022-08-17T07:45:53.046Z,101403.63
2022-08-17T07:48:23.142Z,101448.75
2022-08-17T07:50:53.348Z,101394.41
2022-08-17T07:53:25.004Z,101422.84
2022-08-17T07:55:53.966Z,101425.50
2022-08-17T07:58:23.871Z,101394.16
2022-08-17T08:01:10.026Z,101392.91
2022-08-17T08:03:45.330Z,101453.97
2022-08-17T08:06:24.779Z,101412.16
2022-08-17T08:08:55.069Z,101431.03
2022-08-17T08:11:39.160Z,101463.13
2022-08-17T08:14:42.185Z,101446.81
2022-08-17T08:17:09.593Z,101431.50
2022-08-17T08:19:36.555Z,101452.16
2022-08-17T08:22:12.572Z,101444.31
2022-08-17T08:24:48.085Z,101465.56
2022-08-17T08:27:43.091Z,101422.84
2022-08-17T08:30:23.936Z,101434.41
2022-08-17T08:33:18.458Z,101436.00
2022-08-17T08:35:53.759Z,101427.63
2022-08-17T08:38:45.308Z,101446.25
2022-08-17T08:41:29.812Z,101400.03
2022-08-17T08:44:19.568Z,101440.03
2022-08-17T08:47:10.993Z,101437.47
2022-08-17T08:50:06.023Z,101415.13
2022-08-17T08:52:54.092Z,101440.38
2022-08-17T08:55:32.519Z,101446.38
2022-08-17T08:58:07.729Z,101404.66
2022-08-17T09:00:58.388Z,101431.47
2022-08-17T09:04:17.857Z,101409.03
2022-08-17T09:07:29.368Z,101433.19
2022-08-17T09:10:15.086Z,101433.97
2022-08-17T09:13:09.489Z,101430.63
2022-08-17T09:15:48.120Z,101399.69
2022-08-17T09:19:02.770Z,101391.06
2022-08-17T09:21:49.875Z,101434.72
2022-08-17T09:24:25.133Z,101413.41
2022-08-17T09:26:58.967Z,101415.47
2022-08-17T09:29:29.508Z,101432.34
2022-08-17T09:32:03.924Z,101370.44
2022-08-17T09:34:40.104Z,101425.69
2022-08-17T09:37:19.549Z,101425.59
2022-08-17T09:40:03.109Z,101428.25
2022-08-17T09:42:54.504Z,101390.59
2022-08-17T09:45:28.242Z,101428.16
2022-08-17T09:48:20.880Z,101417.16
2022-08-17T09:51:05.978Z,101427.47
2022-08-17T09:53:36.256Z,101429.69
2022-08-17T09:56:18.668Z,101432.41
2022-08-17T09:59:17.338Z,101418.31
2022-08-17T10:01:56.921Z,101430.66
2022-08-17T10:04:39.754Z,101424.75
2022-08-17T10:07:15.536Z,101429.91
2022-08-17T10:10:18.011Z,101421.47
2022-08-17T10:12:58.869Z,101406.09
2022-08-17T10:15:44.127Z,101390.16
2022-08-17T10:18:45.991Z,101421.50
2022-08-17T10:21:36.153Z,101415.34
2022-08-17T10:24:36.518Z,101423.00
2022-08-17T10:27:08.456Z,101376.13
2022-08-17T10:29:51.963Z,101408.47
2022-08-17T10:32:27.185Z,101397.09
2022-08-17T10:35:12.827Z,101410.69
2022-08-17T10:37:46.591Z,101402.09
2022-08-17T10:40:16.576Z,101401.66
2022-08-17T10:42:51.661Z,101405.50
2022-08-17T10:45:26.495Z,101405.41
2022-08-17T10:48:06.071Z,101417.41
2022-08-17T10:50:46.383Z,101399.53
2022-08-17T10:53:31.467Z,101400.28
2022-08-17T10:56:13.644Z,101394.16
2022-08-17T10:58:57.379Z,101397.63
2022-08-17T11:01:33.208Z,101399.72
2022-08-17T11:04:34.449Z,101395.66
2022-08-17T11:07:16.376Z,101402.06
2022-08-17T11:09:46.043Z,101406.81
2022-08-17T11:12:32.708Z,101345.44
2022-08-17T11:15:17.653Z,101403.25
2022-08-17T11:18:01.607Z,101396.88
2022-08-17T11:20:53.117Z,101403.53
2022-08-17T11:23:45.926Z,101383.22
2022-08-17T11:26:28.121Z,101395.28
2022-08-17T11:29:00.192Z,101384.09
2022-08-17T11:31:44.143Z,101393.72
2022-08-17T11:34:18.803Z,101380.72
2022-08-17T11:37:20.163Z,101387.69
2022-08-17T11:40:11.627Z,101381.75
2022-08-17T11:43:10.797Z,101394.97
2022-08-17T11:45:52.682Z,101395.09
2022-08-17T11:48:55.179Z,101379.03
2022-08-17T11:51:36.304Z,101395.59
2022-08-17T11:57:21.614Z,101398.44
2022-08-17T11:59:48.247Z,101398.75
2022-08-17T12:02:38.914Z,101377.66
2022-08-17T12:05:14.627Z,101393.41
2022-08-17T12:07:52.466Z,101396.09
2022-08-17T12:10:23.484Z,101390.38
2022-08-17T12:12:54.343Z,101371.03
2022-08-17T12:15:40.346Z,101396.28
2022-08-17T12:18:07.202Z,101380.31
2022-08-17T12:20:37.797Z,101386.53
2022-08-17T12:23:10.948Z,101392.88
2022-08-17T12:25:57.902Z,101406.72
2022-08-17T12:28:32.627Z,101411.66
2022-08-17T12:31:19.535Z,101410.72
2022-08-17T12:33:48.099Z,101402.50
2022-08-17T12:36:18.754Z,101411.50
2022-08-17T12:39:13.668Z,101405.03
2022-08-17T12:41:44.640Z,101403.53
2022-08-17T12:44:12.389Z,101404.97
2022-08-17T12:46:56.107Z,101409.16
2022-08-17T12:49:26.630Z,101402.94
2022-08-17T12:52:05.852Z,101407.38
2022-08-17T12:54:59.707Z,101411.19
2022-08-17T12:57:26.453Z,101420.78
2022-08-17T13:00:20.087Z,101426.78
2022-08-17T13:02:48.435Z,101420.53
2022-08-17T13:05:19.066Z,101420.00
2022-08-17T13:07:46.800Z,101398.38
2022-08-17T13:10:19.364Z,101404.25
2022-08-17T13:12:46.041Z,101402.31
2022-08-17T13:15:35.156Z,101401.94
2022-08-17T13:18:08.352Z,101387.22
2022-08-17T13:20:35.854Z,101389.53
2022-08-17T13:23:12.081Z,101392.44
2022-08-17T13:25:39.682Z,101392.38
2022-08-17T13:28:06.386Z,101354.16
2022-08-17T13:30:33.736Z,101393.00
2022-08-17T13:33:02.396Z,101375.78
2022-08-17T13:35:49.322Z,101371.91
2022-08-17T13:38:45.831Z,101361.53
2022-08-17T13:41:36.815Z,101379.72
2022-08-17T13:44:31.020Z,101356.06
2022-08-17T13:46:59.650Z,101379.72
2022-08-17T13:49:41.931Z,101329.84
2022-08-17T13:52:43.551Z,101369.72
2022-08-17T13:55:22.681Z,101361.50
2022-08-17T13:57:57.782Z,101356.72
2022-08-17T14:00:36.492Z,101349.28
2022-08-17T14:03:04.702Z,101361.22
2022-08-17T14:05:32.133Z,101328.91
2022-08-17T14:08:02.624Z,101300.38
2022-08-17T14:10:36.532Z,101314.31
2022-08-17T14:13:04.316Z,101310.41
2022-08-17T14:15:56.209Z,101333.59
2022-08-17T14:18:35.733Z,101307.22
2022-08-17T14:21:08.461Z,101341.06
2022-08-17T14:23:36.034Z,101332.19
2022-08-17T14:26:02.769Z,101308.78
2022-08-17T14:28:29.471Z,101303.38
2022-08-17T14:30:56.187Z,101337.53
2022-08-17T14:33:24.971Z,101346.88
2022-08-17T14:35:53.612Z,101328.84
2022-08-17T14:38:21.052Z,101336.16
2022-08-17T14:40:48.616Z,101271.59
2022-08-17T14:43:16.005Z,101349.72
2022-08-17T14:45:43.543Z,101333.56
2022-08-17T14:48:11.341Z,101347.28
2022-08-17T14:50:41.127Z,101308.03
2022-08-17T14:53:10.301Z,101287.94
2022-08-17T14:55:40.020Z,101351.09
2022-08-17T14:58:08.834Z,101327.31
2022-08-17T15:00:35.731Z,101349.66
2022-08-17T15:03:03.357Z,101344.88
2022-08-17T15:05:34.016Z,101290.97
2022-08-17T15:08:01.773Z,101339.16
2022-08-17T15:10:29.912Z,101329.31
2022-08-17T15:12:56.780Z,101318.66
2022-08-17T15:15:23.728Z,101328.44
2022-08-17T15:17:51.439Z,101310.66
2022-08-17T15:20:22.922Z,101324.03
2022-08-17T15:22:50.050Z,101289.50
2022-08-17T15:25:18.765Z,101307.59
2022-08-17T15:27:45.492Z,101264.91
2022-08-17T15:30:13.358Z,101293.78
2022-08-17T15:32:41.383Z,101307.44
2022-08-17T15:35:19.177Z,101281.16
2022-08-17T15:37:54.455Z,101259.28
2022-08-17T15:40:21.168Z,101248.59
2022-08-17T15:42:47.861Z,101280.63
2022-08-17T15:45:16.999Z,101315.47
2022-08-17T15:47:43.864Z,101282.22
2022-08-17T15:50:11.253Z,101318.59
2022-08-17T15:52:40.586Z,101279.50
2022-08-17T15:55:10.820Z,101307.06
2022-08-17T15:57:37.801Z,101277.97
2022-08-17T16:00:07.415Z,101278.41
2022-08-17T16:03:45.451Z,101284.03
2022-08-17T16:05:24.989Z,101253.19
2022-08-17T16:07:52.589Z,101293.66
2022-08-17T16:10:21.083Z,101264.81
2022-08-17T16:12:49.694Z,101304.44
2022-08-17T16:15:18.168Z,101289.25
2022-08-17T16:17:44.934Z,101277.16
2022-08-17T16:20:20.344Z,101293.72
2022-08-17T16:22:49.517Z,101275.69
2022-08-17T16:25:21.311Z,101314.13
2022-08-17T16:27:54.492Z,101315.59
2022-08-17T16:30:22.730Z,101319.09
2022-08-17T16:32:51.743Z,101274.94
2022-08-17T16:35:21.315Z,101261.41
2022-08-17T16:37:48.591Z,101277.91
2022-08-17T16:40:16.725Z,101300.78
2022-08-17T16:42:45.949Z,101269.56
2022-08-17T16:45:16.939Z,101291.66
2022-08-17T16:47:44.793Z,101296.94
2022-08-17T16:50:13.801Z,101297.94
2022-08-17T16:52:41.655Z,101295.00
2022-08-17T16:55:10.288Z,101280.13
2022-08-17T16:57:47.214Z,101236.72
2022-08-17T17:00:19.493Z,101258.47
2022-08-17T17:02:48.159Z,101227.69
2022-08-17T17:05:17.892Z,101281.97
2022-08-17T17:08:09.065Z,101280.81
2022-08-17T17:10:42.268Z,101279.75
2022-08-17T17:13:32.400Z,101255.59
2022-08-17T17:16:06.292Z,101264.19
2022-08-17T17:18:58.219Z,101252.47
2022-08-17T17:21:32.292Z,101208.28
2022-08-17T17:24:03.123Z,101266.38
2022-08-17T17:26:45.553Z,101263.44
2022-08-17T17:29:47.725Z,101232.41
2022-08-17T17:32:30.048Z,101254.03
2022-08-17T17:35:07.162Z,101173.88
2022-08-17T17:37:35.384Z,101257.63
2022-08-17T17:40:07.684Z,101256.13
2022-08-17T17:42:35.256Z,101243.22
2022-08-17T17:45:16.984Z,101264.31
2022-08-17T17:47:44.550Z,101195.63
2022-08-17T17:50:11.550Z,101202.84
2022-08-17T17:52:46.596Z,101252.00
2022-08-17T17:55:32.973Z,101217.78
2022-08-17T17:58:28.583Z,101242.97
2022-08-17T18:01:19.524Z,101249.72
2022-08-17T18:04:01.824Z,101244.63
2022-08-17T18:07:10.096Z,101239.19
2022-08-17T18:10:30.367Z,101243.38
2022-08-17T18:12:58.328Z,101237.91
2022-08-17T18:15:36.237Z,101223.31
2022-08-17T18:18:14.848Z,101254.97
2022-08-17T18:20:53.249Z,101243.84
2022-08-17T18:23:27.083Z,101214.75
2022-08-17T18:25:55.391Z,101224.94
2022-08-17T18:28:33.104Z,101231.66
2022-08-17T18:31:15.042Z,101254.81
2022-08-17T18:33:46.165Z,101254.31
2022-08-17T18:36:25.759Z,101247.19
2022-08-17T18:39:10.725Z,101267.13
2022-08-17T18:41:42.966Z,101272.25
2022-08-17T18:44:32.732Z,101282.22
2022-08-17T18:47:20.233Z,101232.00
2022-08-17T18:49:50.463Z,101251.75
2022-08-17T18:52:32.831Z,101275.88
2022-08-17T18:55:21.287Z,101281.34
2022-08-17T18:57:51.310Z,101271.63
2022-08-17T19:00:40.293Z,101281.44
2022-08-17T19:03:16.085Z,101283.81
2022-08-17T19:05:46.168Z,101270.38
2022-08-17T19:08:22.570Z,101293.72
2022-08-17T19:10:54.287Z,101288.88
2022-08-17T19:13:28.916Z,101286.59
2022-08-17T19:16:15.022Z,101296.34
2022-08-17T19:18:58.330Z,101280.03
2022-08-17T19:21:39.223Z,101283.81
2022-08-17T19:24:13.883Z,101272.97
2022-08-17T19:26:51.039Z,101282.03
2022-08-17T19:29:32.309Z,101270.25
2022-08-17T19:32:01.540Z,101261.94
2022-08-17T19:34:34.502Z,101268.81
2022-08-17T19:37:01.304Z,101282.44
2022-08-17T19:39:43.825Z,101273.03
2022-08-17T19:42:20.445Z,101261.28
2022-08-17T19:45:07.607Z,101265.16
2022-08-17T19:48:03.912Z,101261.41
2022-08-17T19:50:59.207Z,101264.22
2022-08-17T19:54:03.690Z,101265.75
2022-08-17T19:56:40.394Z,101259.38
2022-08-17T19:59:22.420Z,101247.22
2022-08-17T20:02:01.354Z,101258.16
2022-08-17T20:04:42.724Z,101252.09
2022-08-17T20:07:18.887Z,101255.44
2022-08-17T20:10:08.079Z,101267.41
2022-08-17T20:12:38.232Z,101243.09
2022-08-17T20:15:08.471Z,101250.41
2022-08-17T20:17:39.644Z,101235.41
2022-08-17T20:20:20.241Z,101217.44
2022-08-17T20:23:13.143Z,101235.00
2022-08-17T20:25:52.037Z,101240.22
2022-08-17T20:28:29.651Z,101218.59
2022-08-17T20:30:58.137Z,101218.94
2022-08-17T20:33:37.099Z,101209.41
2022-08-17T20:36:24.180Z,101221.31
2022-08-17T20:38:55.964Z,101233.66
2022-08-17T20:41:30.619Z,101218.28
2022-08-17T20:43:57.280Z,101218.28
2022-08-17T20:46:31.884Z,101204.41
2022-08-17T20:49:38.832Z,101213.81
2022-08-17T20:52:16.611Z,101201.91
2022-08-17T20:54:48.636Z,101207.34
2022-08-17T20:57:33.529Z,101216.59
2022-08-17T21:00:00.454Z,101214.97
2022-08-17T21:02:28.822Z,101199.88
2022-08-17T21:05:03.888Z,101193.53
2022-08-17T21:07:43.175Z,101197.59
2022-08-17T21:10:28.923Z,101192.88
2022-08-17T21:13:23.344Z,101180.91
2022-08-17T21:16:01.024Z,101186.91
2022-08-17T21:19:00.609Z,101174.59
2022-08-17T21:21:53.141Z,101172.66
2022-08-17T21:24:50.814Z,101177.78
2022-08-17T21:27:47.702Z,101160.19
2022-08-17T21:30:46.979Z,101151.88
2022-08-17T21:33:33.916Z,101141.75
2022-08-17T21:36:00.610Z,101160.34
2022-08-17T21:38:58.512Z,101148.34
2022-08-17T21:41:35.226Z,101146.72
2022-08-17T21:44:21.780Z,101150.97
2022-08-17T21:46:53.654Z,101131.78
2022-08-17T21:49:26.977Z,101136.81
2022-08-17T21:51:55.064Z,101143.47
2022-08-17T21:54:35.760Z,101148.94
2022-08-17T21:57:06.239Z,101125.66
2022-08-17T21:59:38.792Z,101135.69
2022-08-17T22:02:24.957Z,101146.19
2022-08-17T22:05:01.615Z,101148.31
2022-08-17T22:07:43.739Z,101148.13
2022-08-17T22:10:40.992Z,101148.50
2022-08-17T22:13:19.846Z,101149.22
2022-08-17T22:15:51.073Z,101142.13
2022-08-17T22:18:23.753Z,101136.19
2022-08-17T22:20:53.546Z,101128.66
2022-08-17T22:23:49.360Z,101134.81
2022-08-17T22:26:18.340Z,101125.53
2022-08-17T22:28:52.359Z,101133.16
2022-08-17T22:31:20.812Z,101137.19
2022-08-17T22:34:03.576Z,101129.19
2022-08-17T22:36:30.947Z,101116.50
2022-08-17T22:39:09.727Z,101121.00
2022-08-17T22:41:48.594Z,101106.88
2022-08-17T22:44:24.361Z,101091.09
2022-08-17T22:46:53.572Z,101103.59
2022-08-17T22:49:53.242Z,101086.69
2022-08-17T22:52:57.198Z,101097.72
2022-08-17T22:55:43.447Z,101096.38
2022-08-17T22:58:33.108Z,101089.44
2022-08-17T23:01:22.536Z,101084.84
2022-08-17T23:03:58.619Z,101081.78
2022-08-17T23:06:25.411Z,101077.44
2022-08-17T23:08:57.791Z,101093.03
2022-08-17T23:11:42.921Z,101070.88
2022-08-17T23:14:15.885Z,101093.22
2022-08-17T23:16:42.899Z,101061.03
2022-08-17T23:19:15.560Z,101075.50
2022-08-17T23:21:44.964Z,101050.59
2022-08-17T23:24:21.404Z,101072.41
2022-08-17T23:26:48.355Z,101053.69
2022-08-17T23:29:15.134Z,101051.19
2022-08-17T23:31:42.204Z,101027.78
2022-08-17T23:34:12.311Z,101046.34
2022-08-17T23:36:39.301Z,101051.97
2022-08-17T23:39:07.494Z,101035.94
2022-08-17T23:41:40.043Z,101021.59
2022-08-17T23:44:07.323Z,100991.94
2022-08-17T23:46:34.770Z,101016.28
2022-08-17T23:49:01.690Z,101012.94
2022-08-17T23:51:31.932Z,101031.41
2022-08-17T23:54:08.247Z,101021.03
2022-08-17T23:56:40.215Z,100989.72
2022-08-17T23:59:06.879Z,101008.50
